sensor_id;sensor_type;location;lat;lon;timestamp;temperature;humidity
29453;DHT22;16424;50.956;5.320;2023-07-29T00:02:10;21.00;99.90
29453;DHT22;16424;50.956;5.320;2023-07-29T00:04:36;21.00;99.90
29453;DHT22;16424;50.956;5.320;2023-07-29T00:07:01;21.00;99.90
29453;DHT22;16424;50.956;5.320;2023-07-29T00:09:27;21.00;99.90
29453;DHT22;16424;50.956;5.320;2023-07-29T00:11:52;21.00;99.90
29453;DHT22;16424;50.956;5.320;2023-07-29T00:14:18;21.00;99.90
29453;DHT22;16424;50.956;5.320;2023-07-29T00:16:44;21.10;99.90
29453;DHT22;16424;50.956;5.320;2023-07-29T00:19:09;21.10;99.90
29453;DHT22;16424;50.956;5.320;2023-07-29T00:21:35;21.00;99.90
29453;DHT22;16424;50.956;5.320;2023-07-29T00:24:01;21.00;99.90
29453;DHT22;16424;50.956;5.320;2023-07-29T00:26:27;20.90;99.90
29453;DHT22;16424;50.956;5.320;2023-07-29T00:28:55;20.80;99.90
29453;DHT22;16424;50.956;5.320;2023-07-29T00:31:21;21.00;99.90
29453;DHT22;16424;50.956;5.320;2023-07-29T00:33:46;21.10;99.90
29453;DHT22;16424;50.956;5.320;2023-07-29T00:36:12;21.10;99.90
29453;DHT22;16424;50.956;5.320;2023-07-29T00:38:38;21.10;99.90
29453;DHT22;16424;50.956;5.320;2023-07-29T00:41:03;21.10;99.90
29453;DHT22;16424;50.956;5.320;2023-07-29T00:43:30;21.10;99.90
29453;DHT22;16424;50.956;5.320;2023-07-29T00:45:56;21.00;99.90
29453;DHT22;16424;50.956;5.320;2023-07-29T00:48:23;21.00;99.90
29453;DHT22;16424;50.956;5.320;2023-07-29T00:50:49;21.10;99.90
29453;DHT22;16424;50.956;5.320;2023-07-29T00:53:15;21.00;99.90
29453;DHT22;16424;50.956;5.320;2023-07-29T00:55:42;21.10;99.90
29453;DHT22;16424;50.956;5.320;2023-07-29T00:58:07;21.20;99.90
29453;DHT22;16424;50.956;5.320;2023-07-29T01:00:33;21.10;99.90
29453;DHT22;16424;50.956;5.320;2023-07-29T01:02:59;21.20;99.90
29453;DHT22;16424;50.956;5.320;2023-07-29T01:05:30;21.20;99.90
29453;DHT22;16424;50.956;5.320;2023-07-29T01:08:18;21.20;99.90
29453;DHT22;16424;50.956;5.320;2023-07-29T01:11:03;21.10;99.90
29453;DHT22;16424;50.956;5.320;2023-07-29T01:14:01;21.00;99.90
29453;DHT22;16424;50.956;5.320;2023-07-29T01:16:52;20.90;99.90
29453;DHT22;16424;50.956;5.320;2023-07-29T01:19:43;20.90;99.90
29453;DHT22;16424;50.956;5.320;2023-07-29T01:22:13;20.90;99.90
29453;DHT22;16424;50.956;5.320;2023-07-29T01:24:39;21.00;99.90
29453;DHT22;16424;50.956;5.320;2023-07-29T01:27:05;21.00;99.90
29453;DHT22;16424;50.956;5.320;2023-07-29T01:29:31;21.10;99.90
29453;DHT22;16424;50.956;5.320;2023-07-29T01:32:02;20.90;99.90
29453;DHT22;16424;50.956;5.320;2023-07-29T01:34:42;21.00;99.90
29453;DHT22;16424;50.956;5.320;2023-07-29T01:37:13;20.80;99.90
29453;DHT22;16424;50.956;5.320;2023-07-29T01:39:40;20.80;99.90
29453;DHT22;16424;50.956;5.320;2023-07-29T01:42:07;20.90;99.90
29453;DHT22;16424;50.956;5.320;2023-07-29T01:44:33;20.90;99.90
29453;DHT22;16424;50.956;5.320;2023-07-29T01:46:59;21.00;99.90
29453;DHT22;16424;50.956;5.320;2023-07-29T01:49:25;20.70;99.90
29453;DHT22;16424;50.956;5.320;2023-07-29T01:51:51;20.60;99.90
29453;DHT22;16424;50.956;5.320;2023-07-29T01:54:16;20.40;99.90
29453;DHT22;16424;50.956;5.320;2023-07-29T01:56:42;20.30;99.90
29453;DHT22;16424;50.956;5.320;2023-07-29T01:59:08;20.20;99.90
29453;DHT22;16424;50.956;5.320;2023-07-29T02:01:33;20.10;99.90
29453;DHT22;16424;50.956;5.320;2023-07-29T02:03:59;20.10;99.90
29453;DHT22;16424;50.956;5.320;2023-07-29T02:06:25;20.20;99.90
29453;DHT22;16424;50.956;5.320;2023-07-29T02:08:52;20.10;99.90
29453;DHT22;16424;50.956;5.320;2023-07-29T02:11:18;20.20;99.90
29453;DHT22;16424;50.956;5.320;2023-07-29T02:13:45;20.20;99.90
29453;DHT22;16424;50.956;5.320;2023-07-29T02:16:11;20.10;99.90
29453;DHT22;16424;50.956;5.320;2023-07-29T02:18:37;20.00;99.90
29453;DHT22;16424;50.956;5.320;2023-07-29T02:21:02;20.00;99.90
29453;DHT22;16424;50.956;5.320;2023-07-29T02:23:28;19.90;99.90
29453;DHT22;16424;50.956;5.320;2023-07-29T02:25:54;19.90;99.90
29453;DHT22;16424;50.956;5.320;2023-07-29T02:28:20;19.90;99.90
29453;DHT22;16424;50.956;5.320;2023-07-29T02:30:45;19.80;99.90
29453;DHT22;16424;50.956;5.320;2023-07-29T02:33:11;19.70;99.90
29453;DHT22;16424;50.956;5.320;2023-07-29T02:35:37;19.80;99.90
29453;DHT22;16424;50.956;5.320;2023-07-29T02:38:02;19.60;99.90
29453;DHT22;16424;50.956;5.320;2023-07-29T02:40:28;19.80;99.90
29453;DHT22;16424;50.956;5.320;2023-07-29T02:42:54;19.80;99.90
29453;DHT22;16424;50.956;5.320;2023-07-29T02:45:20;19.90;99.90
29453;DHT22;16424;50.956;5.320;2023-07-29T02:47:46;19.80;99.90
29453;DHT22;16424;50.956;5.320;2023-07-29T02:50:12;19.70;99.90
29453;DHT22;16424;50.956;5.320;2023-07-29T02:52:38;19.70;99.90
29453;DHT22;16424;50.956;5.320;2023-07-29T02:55:04;19.80;99.90
29453;DHT22;16424;50.956;5.320;2023-07-29T02:57:29;19.70;99.90
29453;DHT22;16424;50.956;5.320;2023-07-29T02:59:55;19.70;99.90
29453;DHT22;16424;50.956;5.320;2023-07-29T03:02:21;19.60;99.90
29453;DHT22;16424;50.956;5.320;2023-07-29T03:04:48;19.60;99.90
29453;DHT22;16424;50.956;5.320;2023-07-29T03:07:13;19.60;99.90
29453;DHT22;16424;50.956;5.320;2023-07-29T03:09:39;19.70;99.90
29453;DHT22;16424;50.956;5.320;2023-07-29T03:12:07;19.70;99.90
29453;DHT22;16424;50.956;5.320;2023-07-29T03:14:33;19.70;99.90
29453;DHT22;16424;50.956;5.320;2023-07-29T03:17:02;19.70;99.90
29453;DHT22;16424;50.956;5.320;2023-07-29T03:19:29;19.70;99.90
29453;DHT22;16424;50.956;5.320;2023-07-29T03:21:55;19.60;99.90
29453;DHT22;16424;50.956;5.320;2023-07-29T03:24:21;19.50;99.90
29453;DHT22;16424;50.956;5.320;2023-07-29T03:26:46;19.40;99.90
29453;DHT22;16424;50.956;5.320;2023-07-29T03:29:12;19.40;99.90
29453;DHT22;16424;50.956;5.320;2023-07-29T03:31:38;19.20;99.90
29453;DHT22;16424;50.956;5.320;2023-07-29T03:34:03;19.30;99.90
29453;DHT22;16424;50.956;5.320;2023-07-29T03:36:29;19.30;99.90
29453;DHT22;16424;50.956;5.320;2023-07-29T03:38:55;19.20;99.90
29453;DHT22;16424;50.956;5.320;2023-07-29T03:41:20;19.10;99.90
29453;DHT22;16424;50.956;5.320;2023-07-29T03:43:46;18.80;99.90
29453;DHT22;16424;50.956;5.320;2023-07-29T03:46:11;18.70;99.90
29453;DHT22;16424;50.956;5.320;2023-07-29T03:48:38;18.80;99.90
29453;DHT22;16424;50.956;5.320;2023-07-29T03:51:04;18.80;99.90
29453;DHT22;16424;50.956;5.320;2023-07-29T03:53:30;18.90;99.90
29453;DHT22;16424;50.956;5.320;2023-07-29T03:55:55;19.00;99.90
29453;DHT22;16424;50.956;5.320;2023-07-29T03:58:21;19.10;99.90
29453;DHT22;16424;50.956;5.320;2023-07-29T04:00:47;19.20;99.90
29453;DHT22;16424;50.956;5.320;2023-07-29T04:03:13;19.10;99.90
29453;DHT22;16424;50.956;5.320;2023-07-29T04:05:38;19.10;99.90
29453;DHT22;16424;50.956;5.320;2023-07-29T04:08:04;19.10;99.90
29453;DHT22;16424;50.956;5.320;2023-07-29T04:10:30;19.00;99.90
29453;DHT22;16424;50.956;5.320;2023-07-29T04:12:57;19.10;99.90
29453;DHT22;16424;50.956;5.320;2023-07-29T04:15:22;19.10;99.90
29453;DHT22;16424;50.956;5.320;2023-07-29T04:17:48;19.10;99.90
29453;DHT22;16424;50.956;5.320;2023-07-29T04:20:14;19.20;99.90
29453;DHT22;16424;50.956;5.320;2023-07-29T04:22:39;19.10;99.90
29453;DHT22;16424;50.956;5.320;2023-07-29T04:25:05;19.10;99.90
29453;DHT22;16424;50.956;5.320;2023-07-29T04:27:31;19.00;99.90
29453;DHT22;16424;50.956;5.320;2023-07-29T04:29:57;19.00;99.90
29453;DHT22;16424;50.956;5.320;2023-07-29T04:32:22;19.00;99.90
29453;DHT22;16424;50.956;5.320;2023-07-29T04:34:48;19.00;99.90
29453;DHT22;16424;50.956;5.320;2023-07-29T04:37:14;19.00;99.90
29453;DHT22;16424;50.956;5.320;2023-07-29T04:39:39;18.90;99.90
29453;DHT22;16424;50.956;5.320;2023-07-29T04:42:05;18.90;99.90
29453;DHT22;16424;50.956;5.320;2023-07-29T04:44:31;18.90;99.90
29453;DHT22;16424;50.956;5.320;2023-07-29T04:46:56;18.90;99.90
29453;DHT22;16424;50.956;5.320;2023-07-29T04:49:22;18.90;99.90
29453;DHT22;16424;50.956;5.320;2023-07-29T04:51:48;18.90;99.90
29453;DHT22;16424;50.956;5.320;2023-07-29T04:54:13;18.90;99.90
29453;DHT22;16424;50.956;5.320;2023-07-29T04:56:39;18.90;99.90
29453;DHT22;16424;50.956;5.320;2023-07-29T04:59:04;18.90;99.90
29453;DHT22;16424;50.956;5.320;2023-07-29T05:01:30;18.90;99.90
29453;DHT22;16424;50.956;5.320;2023-07-29T05:03:56;18.90;99.90
29453;DHT22;16424;50.956;5.320;2023-07-29T05:06:21;18.90;99.90
29453;DHT22;16424;50.956;5.320;2023-07-29T05:08:47;18.70;99.90
29453;DHT22;16424;50.956;5.320;2023-07-29T05:11:12;18.60;99.90
29453;DHT22;16424;50.956;5.320;2023-07-29T05:13:38;18.50;99.90
29453;DHT22;16424;50.956;5.320;2023-07-29T05:16:04;18.60;99.90
29453;DHT22;16424;50.956;5.320;2023-07-29T05:18:30;18.60;99.90
29453;DHT22;16424;50.956;5.320;2023-07-29T05:20:55;18.70;99.90
29453;DHT22;16424;50.956;5.320;2023-07-29T05:23:21;18.80;99.90
29453;DHT22;16424;50.956;5.320;2023-07-29T05:25:47;18.70;99.90
29453;DHT22;16424;50.956;5.320;2023-07-29T05:28:12;18.80;99.90
29453;DHT22;16424;50.956;5.320;2023-07-29T05:30:38;18.90;99.90
29453;DHT22;16424;50.956;5.320;2023-07-29T05:33:05;19.10;99.90
29453;DHT22;16424;50.956;5.320;2023-07-29T05:35:33;19.30;99.90
29453;DHT22;16424;50.956;5.320;2023-07-29T05:37:59;19.30;99.90
29453;DHT22;16424;50.956;5.320;2023-07-29T05:40:24;19.40;99.90
29453;DHT22;16424;50.956;5.320;2023-07-29T05:42:50;19.10;99.90
29453;DHT22;16424;50.956;5.320;2023-07-29T05:45:16;19.20;99.90
29453;DHT22;16424;50.956;5.320;2023-07-29T05:47:41;19.30;99.90
29453;DHT22;16424;50.956;5.320;2023-07-29T05:50:07;19.30;99.90
29453;DHT22;16424;50.956;5.320;2023-07-29T05:52:34;19.50;99.90
29453;DHT22;16424;50.956;5.320;2023-07-29T05:55:00;19.30;99.90
29453;DHT22;16424;50.956;5.320;2023-07-29T05:57:25;19.60;99.90
29453;DHT22;16424;50.956;5.320;2023-07-29T05:59:51;19.70;99.90
29453;DHT22;16424;50.956;5.320;2023-07-29T06:02:16;19.80;99.90
29453;DHT22;16424;50.956;5.320;2023-07-29T06:04:42;19.90;99.90
29453;DHT22;16424;50.956;5.320;2023-07-29T06:07:08;20.10;99.90
29453;DHT22;16424;50.956;5.320;2023-07-29T06:09:33;20.60;99.90
29453;DHT22;16424;50.956;5.320;2023-07-29T06:11:59;21.20;99.90
29453;DHT22;16424;50.956;5.320;2023-07-29T06:14:26;21.20;99.90
29453;DHT22;16424;50.956;5.320;2023-07-29T06:16:52;21.30;99.90
29453;DHT22;16424;50.956;5.320;2023-07-29T06:19:19;21.40;99.90
29453;DHT22;16424;50.956;5.320;2023-07-29T06:21:45;21.40;99.90
29453;DHT22;16424;50.956;5.320;2023-07-29T06:24:10;21.40;99.90
29453;DHT22;16424;50.956;5.320;2023-07-29T06:26:36;22.00;99.90
29453;DHT22;16424;50.956;5.320;2023-07-29T06:29:02;22.30;99.90
29453;DHT22;16424;50.956;5.320;2023-07-29T06:31:28;22.30;99.90
29453;DHT22;16424;50.956;5.320;2023-07-29T06:33:53;22.40;99.90
29453;DHT22;16424;50.956;5.320;2023-07-29T06:36:20;23.40;99.90
29453;DHT22;16424;50.956;5.320;2023-07-29T06:38:45;24.00;99.90
29453;DHT22;16424;50.956;5.320;2023-07-29T06:41:11;23.90;99.90
29453;DHT22;16424;50.956;5.320;2023-07-29T06:43:37;24.20;99.90
29453;DHT22;16424;50.956;5.320;2023-07-29T06:46:03;25.10;99.90
29453;DHT22;16424;50.956;5.320;2023-07-29T06:48:29;26.40;99.90
29453;DHT22;16424;50.956;5.320;2023-07-29T06:50:55;27.40;99.90
29453;DHT22;16424;50.956;5.320;2023-07-29T06:53:21;28.20;99.90
29453;DHT22;16424;50.956;5.320;2023-07-29T06:55:47;28.60;99.90
29453;DHT22;16424;50.956;5.320;2023-07-29T06:58:12;27.90;99.90
29453;DHT22;16424;50.956;5.320;2023-07-29T07:00:38;28.00;99.90
29453;DHT22;16424;50.956;5.320;2023-07-29T07:03:04;28.40;99.90
29453;DHT22;16424;50.956;5.320;2023-07-29T07:05:30;28.60;99.90
29453;DHT22;16424;50.956;5.320;2023-07-29T07:07:55;28.50;99.90
29453;DHT22;16424;50.956;5.320;2023-07-29T07:10:21;28.90;99.90
29453;DHT22;16424;50.956;5.320;2023-07-29T07:12:46;28.90;99.90
29453;DHT22;16424;50.956;5.320;2023-07-29T07:15:12;28.00;99.90
29453;DHT22;16424;50.956;5.320;2023-07-29T07:17:38;27.40;99.90
29453;DHT22;16424;50.956;5.320;2023-07-29T07:20:04;26.30;99.90
29453;DHT22;16424;50.956;5.320;2023-07-29T07:22:30;26.50;99.90
29453;DHT22;16424;50.956;5.320;2023-07-29T07:24:56;26.60;99.90
29453;DHT22;16424;50.956;5.320;2023-07-29T07:27:21;26.30;99.90
29453;DHT22;16424;50.956;5.320;2023-07-29T07:29:47;25.70;99.90
29453;DHT22;16424;50.956;5.320;2023-07-29T07:32:12;24.80;99.90
29453;DHT22;16424;50.956;5.320;2023-07-29T07:34:38;24.00;99.90
29453;DHT22;16424;50.956;5.320;2023-07-29T07:37:04;23.50;99.90
29453;DHT22;16424;50.956;5.320;2023-07-29T07:39:31;23.90;99.90
29453;DHT22;16424;50.956;5.320;2023-07-29T07:41:56;24.20;99.90
29453;DHT22;16424;50.956;5.320;2023-07-29T07:44:22;25.00;99.90
29453;DHT22;16424;50.956;5.320;2023-07-29T07:46:48;25.50;99.90
29453;DHT22;16424;50.956;5.320;2023-07-29T07:49:14;26.20;99.90
29453;DHT22;16424;50.956;5.320;2023-07-29T07:51:39;26.30;99.90
29453;DHT22;16424;50.956;5.320;2023-07-29T07:54:05;25.70;99.90
29453;DHT22;16424;50.956;5.320;2023-07-29T07:56:30;25.10;99.90
29453;DHT22;16424;50.956;5.320;2023-07-29T07:58:56;24.70;99.90
29453;DHT22;16424;50.956;5.320;2023-07-29T08:01:22;23.90;99.90
29453;DHT22;16424;50.956;5.320;2023-07-29T08:03:47;23.70;99.90
29453;DHT22;16424;50.956;5.320;2023-07-29T08:06:13;23.10;99.90
29453;DHT22;16424;50.956;5.320;2023-07-29T08:08:39;22.80;99.90
29453;DHT22;16424;50.956;5.320;2023-07-29T08:11:04;22.50;99.90
29453;DHT22;16424;50.956;5.320;2023-07-29T08:13:30;22.50;99.90
29453;DHT22;16424;50.956;5.320;2023-07-29T08:15:56;22.40;99.90
29453;DHT22;16424;50.956;5.320;2023-07-29T08:18:21;22.60;99.90
29453;DHT22;16424;50.956;5.320;2023-07-29T08:20:58;22.30;99.90
29453;DHT22;16424;50.956;5.320;2023-07-29T08:23:26;22.60;99.90
29453;DHT22;16424;50.956;5.320;2023-07-29T08:25:59;22.30;99.90
29453;DHT22;16424;50.956;5.320;2023-07-29T08:28:33;22.60;99.90
29453;DHT22;16424;50.956;5.320;2023-07-29T08:30:59;22.90;99.90
29453;DHT22;16424;50.956;5.320;2023-07-29T08:33:25;23.10;99.90
29453;DHT22;16424;50.956;5.320;2023-07-29T08:35:51;23.50;99.90
29453;DHT22;16424;50.956;5.320;2023-07-29T08:38:16;23.90;99.90
29453;DHT22;16424;50.956;5.320;2023-07-29T08:41:10;23.90;99.90
29453;DHT22;16424;50.956;5.320;2023-07-29T08:43:32;23.90;99.90
29453;DHT22;16424;50.956;5.320;2023-07-29T08:46:01;24.60;99.90
29453;DHT22;16424;50.956;5.320;2023-07-29T08:48:40;25.30;99.90
29453;DHT22;16424;50.956;5.320;2023-07-29T08:51:08;25.30;99.90
29453;DHT22;16424;50.956;5.320;2023-07-29T08:53:35;26.60;99.90
29453;DHT22;16424;50.956;5.320;2023-07-29T08:56:01;27.60;99.90
29453;DHT22;16424;50.956;5.320;2023-07-29T08:58:27;28.10;99.90
29453;DHT22;16424;50.956;5.320;2023-07-29T09:00:53;28.10;99.90
29453;DHT22;16424;50.956;5.320;2023-07-29T09:03:20;28.00;99.90
29453;DHT22;16424;50.956;5.320;2023-07-29T09:05:46;29.00;99.90
29453;DHT22;16424;50.956;5.320;2023-07-29T09:08:12;30.20;99.90
29453;DHT22;16424;50.956;5.320;2023-07-29T09:10:38;31.10;99.90
29453;DHT22;16424;50.956;5.320;2023-07-29T09:13:04;31.40;99.90
29453;DHT22;16424;50.956;5.320;2023-07-29T09:15:34;30.80;99.90
29453;DHT22;16424;50.956;5.320;2023-07-29T09:18:13;30.30;99.90
29453;DHT22;16424;50.956;5.320;2023-07-29T09:20:40;28.90;99.90
29453;DHT22;16424;50.956;5.320;2023-07-29T09:23:08;28.30;99.90
29453;DHT22;16424;50.956;5.320;2023-07-29T09:25:36;28.70;99.90
29453;DHT22;16424;50.956;5.320;2023-07-29T09:28:11;28.40;99.90
29453;DHT22;16424;50.956;5.320;2023-07-29T09:30:41;27.30;99.90
29453;DHT22;16424;50.956;5.320;2023-07-29T09:33:08;27.00;99.90
29453;DHT22;16424;50.956;5.320;2023-07-29T09:35:36;26.60;99.90
29453;DHT22;16424;50.956;5.320;2023-07-29T09:38:06;26.20;99.90
29453;DHT22;16424;50.956;5.320;2023-07-29T09:40:40;25.70;99.90
29453;DHT22;16424;50.956;5.320;2023-07-29T09:43:07;25.50;99.90
29453;DHT22;16424;50.956;5.320;2023-07-29T09:45:36;25.20;99.90
29453;DHT22;16424;50.956;5.320;2023-07-29T09:48:04;24.90;99.90
29453;DHT22;16424;50.956;5.320;2023-07-29T09:50:34;24.60;99.90
29453;DHT22;16424;50.956;5.320;2023-07-29T09:53:01;24.60;99.90
29453;DHT22;16424;50.956;5.320;2023-07-29T09:55:28;24.80;99.90
29453;DHT22;16424;50.956;5.320;2023-07-29T09:57:59;25.30;99.90
29453;DHT22;16424;50.956;5.320;2023-07-29T10:00:28;25.80;99.90
29453;DHT22;16424;50.956;5.320;2023-07-29T10:02:54;25.90;99.90
29453;DHT22;16424;50.956;5.320;2023-07-29T10:05:22;26.30;99.90
29453;DHT22;16424;50.956;5.320;2023-07-29T10:07:49;25.90;99.90
29453;DHT22;16424;50.956;5.320;2023-07-29T10:10:15;26.20;99.90
29453;DHT22;16424;50.956;5.320;2023-07-29T10:12:42;25.90;99.90
29453;DHT22;16424;50.956;5.320;2023-07-29T10:15:08;25.80;99.90
29453;DHT22;16424;50.956;5.320;2023-07-29T10:17:36;25.70;99.90
29453;DHT22;16424;50.956;5.320;2023-07-29T10:20:03;25.70;99.90
29453;DHT22;16424;50.956;5.320;2023-07-29T10:22:35;25.90;99.90
29453;DHT22;16424;50.956;5.320;2023-07-29T10:25:04;25.70;99.90
29453;DHT22;16424;50.956;5.320;2023-07-29T10:27:41;25.40;99.90
29453;DHT22;16424;50.956;5.320;2023-07-29T10:30:08;25.30;99.90
29453;DHT22;16424;50.956;5.320;2023-07-29T10:32:34;25.00;99.90
29453;DHT22;16424;50.956;5.320;2023-07-29T10:35:00;25.30;99.90
29453;DHT22;16424;50.956;5.320;2023-07-29T10:37:26;25.30;99.90
29453;DHT22;16424;50.956;5.320;2023-07-29T10:39:55;25.40;99.90
29453;DHT22;16424;50.956;5.320;2023-07-29T10:42:22;25.60;99.90
29453;DHT22;16424;50.956;5.320;2023-07-29T10:44:51;26.00;99.90
29453;DHT22;16424;50.956;5.320;2023-07-29T10:47:20;26.20;99.90
29453;DHT22;16424;50.956;5.320;2023-07-29T10:49:54;26.20;99.90
29453;DHT22;16424;50.956;5.320;2023-07-29T10:52:40;26.30;99.90
29453;DHT22;16424;50.956;5.320;2023-07-29T10:55:30;26.10;99.90
29453;DHT22;16424;50.956;5.320;2023-07-29T10:58:14;25.80;99.90
29453;DHT22;16424;50.956;5.320;2023-07-29T11:00:43;25.20;99.90
29453;DHT22;16424;50.956;5.320;2023-07-29T11:03:09;24.90;99.90
29453;DHT22;16424;50.956;5.320;2023-07-29T11:05:50;24.40;99.90
29453;DHT22;16424;50.956;5.320;2023-07-29T11:08:27;24.30;99.90
29453;DHT22;16424;50.956;5.320;2023-07-29T11:11:06;24.00;99.90
29453;DHT22;16424;50.956;5.320;2023-07-29T11:13:34;24.00;99.90
29453;DHT22;16424;50.956;5.320;2023-07-29T11:16:00;24.00;99.90
29453;DHT22;16424;50.956;5.320;2023-07-29T11:18:29;24.10;99.90
29453;DHT22;16424;50.956;5.320;2023-07-29T11:20:56;24.00;99.90
29453;DHT22;16424;50.956;5.320;2023-07-29T11:23:28;23.90;99.90
29453;DHT22;16424;50.956;5.320;2023-07-29T11:25:55;23.80;99.90
29453;DHT22;16424;50.956;5.320;2023-07-29T11:28:20;24.00;99.90
29453;DHT22;16424;50.956;5.320;2023-07-29T11:30:47;24.20;99.90
29453;DHT22;16424;50.956;5.320;2023-07-29T11:33:16;24.50;99.90
29453;DHT22;16424;50.956;5.320;2023-07-29T11:35:42;24.60;99.90
29453;DHT22;16424;50.956;5.320;2023-07-29T11:38:07;24.00;99.90
29453;DHT22;16424;50.956;5.320;2023-07-29T11:40:33;23.50;99.90
29453;DHT22;16424;50.956;5.320;2023-07-29T11:42:59;23.20;99.90
29453;DHT22;16424;50.956;5.320;2023-07-29T11:45:25;23.10;99.90
29453;DHT22;16424;50.956;5.320;2023-07-29T11:47:51;23.20;99.90
29453;DHT22;16424;50.956;5.320;2023-07-29T11:50:17;23.20;99.90
29453;DHT22;16424;50.956;5.320;2023-07-29T11:52:45;23.40;99.90
29453;DHT22;16424;50.956;5.320;2023-07-29T11:55:12;23.50;99.90
29453;DHT22;16424;50.956;5.320;2023-07-29T11:57:40;23.60;99.90
29453;DHT22;16424;50.956;5.320;2023-07-29T12:00:08;23.50;99.90
29453;DHT22;16424;50.956;5.320;2023-07-29T12:02:37;23.40;99.90
29453;DHT22;16424;50.956;5.320;2023-07-29T12:05:04;23.30;99.90
29453;DHT22;16424;50.956;5.320;2023-07-29T12:07:31;23.40;99.90
29453;DHT22;16424;50.956;5.320;2023-07-29T12:09:59;23.30;99.90
29453;DHT22;16424;50.956;5.320;2023-07-29T12:12:24;23.40;99.90
29453;DHT22;16424;50.956;5.320;2023-07-29T12:14:50;23.40;99.90
29453;DHT22;16424;50.956;5.320;2023-07-29T12:17:16;23.40;99.90
29453;DHT22;16424;50.956;5.320;2023-07-29T12:19:42;23.60;99.90
29453;DHT22;16424;50.956;5.320;2023-07-29T12:22:09;23.40;99.90
29453;DHT22;16424;50.956;5.320;2023-07-29T12:24:37;23.40;99.90
29453;DHT22;16424;50.956;5.320;2023-07-29T12:27:03;23.60;99.90
29453;DHT22;16424;50.956;5.320;2023-07-29T12:29:29;23.50;99.90
29453;DHT22;16424;50.956;5.320;2023-07-29T12:32:03;23.00;99.90
29453;DHT22;16424;50.956;5.320;2023-07-29T12:34:30;22.80;99.90
29453;DHT22;16424;50.956;5.320;2023-07-29T12:36:58;22.70;99.90
29453;DHT22;16424;50.956;5.320;2023-07-29T12:39:32;22.40;99.90
29453;DHT22;16424;50.956;5.320;2023-07-29T12:41:59;21.60;99.90
29453;DHT22;16424;50.956;5.320;2023-07-29T12:44:32;21.20;99.90
29453;DHT22;16424;50.956;5.320;2023-07-29T12:46:57;21.10;99.90
29453;DHT22;16424;50.956;5.320;2023-07-29T12:49:23;21.40;99.90
29453;DHT22;16424;50.956;5.320;2023-07-29T12:51:50;21.80;99.90
29453;DHT22;16424;50.956;5.320;2023-07-29T12:54:15;22.10;99.90
29453;DHT22;16424;50.956;5.320;2023-07-29T12:56:41;22.40;99.90
29453;DHT22;16424;50.956;5.320;2023-07-29T12:59:07;22.40;99.90
29453;DHT22;16424;50.956;5.320;2023-07-29T13:01:32;22.70;99.90
29453;DHT22;16424;50.956;5.320;2023-07-29T13:03:58;22.90;99.90
29453;DHT22;16424;50.956;5.320;2023-07-29T13:06:24;23.20;99.90
29453;DHT22;16424;50.956;5.320;2023-07-29T13:08:49;22.90;99.90
29453;DHT22;16424;50.956;5.320;2023-07-29T13:11:16;23.10;99.90
29453;DHT22;16424;50.956;5.320;2023-07-29T13:13:42;23.10;99.90
29453;DHT22;16424;50.956;5.320;2023-07-29T13:16:07;23.30;99.90
29453;DHT22;16424;50.956;5.320;2023-07-29T13:18:33;23.10;99.90
29453;DHT22;16424;50.956;5.320;2023-07-29T13:20:59;22.90;99.90
29453;DHT22;16424;50.956;5.320;2023-07-29T13:23:28;23.00;99.90
29453;DHT22;16424;50.956;5.320;2023-07-29T13:25:55;23.10;99.90
29453;DHT22;16424;50.956;5.320;2023-07-29T13:28:21;22.90;99.90
29453;DHT22;16424;50.956;5.320;2023-07-29T13:30:47;23.00;99.90
29453;DHT22;16424;50.956;5.320;2023-07-29T13:33:12;23.10;99.90
29453;DHT22;16424;50.956;5.320;2023-07-29T13:35:38;23.00;99.90
29453;DHT22;16424;50.956;5.320;2023-07-29T13:38:04;22.60;99.90
29453;DHT22;16424;50.956;5.320;2023-07-29T13:40:29;22.40;99.90
29453;DHT22;16424;50.956;5.320;2023-07-29T13:42:55;22.10;99.90
29453;DHT22;16424;50.956;5.320;2023-07-29T13:45:22;21.90;99.90
29453;DHT22;16424;50.956;5.320;2023-07-29T13:47:49;21.70;99.90
29453;DHT22;16424;50.956;5.320;2023-07-29T13:50:16;21.60;99.90
29453;DHT22;16424;50.956;5.320;2023-07-29T13:52:41;21.60;99.90
29453;DHT22;16424;50.956;5.320;2023-07-29T13:55:07;21.80;99.90
29453;DHT22;16424;50.956;5.320;2023-07-29T13:57:33;22.20;99.90
29453;DHT22;16424;50.956;5.320;2023-07-29T13:59:59;22.70;99.90
29453;DHT22;16424;50.956;5.320;2023-07-29T14:02:25;23.10;99.90
29453;DHT22;16424;50.956;5.320;2023-07-29T14:04:54;23.20;99.90
29453;DHT22;16424;50.956;5.320;2023-07-29T14:07:19;23.40;99.90
29453;DHT22;16424;50.956;5.320;2023-07-29T14:09:45;23.60;99.90
29453;DHT22;16424;50.956;5.320;2023-07-29T14:12:11;23.90;99.90
29453;DHT22;16424;50.956;5.320;2023-07-29T14:14:40;23.80;99.90
29453;DHT22;16424;50.956;5.320;2023-07-29T14:17:06;23.80;99.90
29453;DHT22;16424;50.956;5.320;2023-07-29T14:19:32;24.10;99.90
29453;DHT22;16424;50.956;5.320;2023-07-29T14:21:58;24.10;99.90
29453;DHT22;16424;50.956;5.320;2023-07-29T14:24:24;24.10;99.90
29453;DHT22;16424;50.956;5.320;2023-07-29T14:26:50;24.00;99.90
29453;DHT22;16424;50.956;5.320;2023-07-29T14:29:15;24.10;99.90
29453;DHT22;16424;50.956;5.320;2023-07-29T14:31:41;24.10;99.90
29453;DHT22;16424;50.956;5.320;2023-07-29T14:34:06;24.20;99.90
29453;DHT22;16424;50.956;5.320;2023-07-29T14:36:32;24.20;99.90
29453;DHT22;16424;50.956;5.320;2023-07-29T14:38:58;24.50;99.90
29453;DHT22;16424;50.956;5.320;2023-07-29T14:41:24;24.80;99.90
29453;DHT22;16424;50.956;5.320;2023-07-29T14:43:50;24.60;99.90
29453;DHT22;16424;50.956;5.320;2023-07-29T14:46:15;24.70;99.90
29453;DHT22;16424;50.956;5.320;2023-07-29T14:48:44;24.50;99.90
29453;DHT22;16424;50.956;5.320;2023-07-29T14:51:10;24.60;99.90
29453;DHT22;16424;50.956;5.320;2023-07-29T14:53:36;25.00;99.90
29453;DHT22;16424;50.956;5.320;2023-07-29T14:56:02;25.10;99.90
29453;DHT22;16424;50.956;5.320;2023-07-29T14:58:27;24.70;99.90
29453;DHT22;16424;50.956;5.320;2023-07-29T15:00:53;24.30;99.90
29453;DHT22;16424;50.956;5.320;2023-07-29T15:03:18;23.90;99.90
29453;DHT22;16424;50.956;5.320;2023-07-29T15:05:44;23.80;99.90
29453;DHT22;16424;50.956;5.320;2023-07-29T15:08:10;23.90;99.90
29453;DHT22;16424;50.956;5.320;2023-07-29T15:10:35;23.80;99.90
29453;DHT22;16424;50.956;5.320;2023-07-29T15:13:02;23.90;99.90
29453;DHT22;16424;50.956;5.320;2023-07-29T15:15:28;23.80;99.90
29453;DHT22;16424;50.956;5.320;2023-07-29T15:17:53;23.80;99.90
29453;DHT22;16424;50.956;5.320;2023-07-29T15:20:19;23.60;99.90
29453;DHT22;16424;50.956;5.320;2023-07-29T15:22:45;23.60;99.90
29453;DHT22;16424;50.956;5.320;2023-07-29T15:25:10;23.70;99.90
29453;DHT22;16424;50.956;5.320;2023-07-29T15:27:37;24.10;99.90
29453;DHT22;16424;50.956;5.320;2023-07-29T15:30:03;24.40;99.90